sensor_id;sensor_type;location;lat;lon;timestamp;P1;durP1;ratioP1;P2;durP2;ratioP2
12048;SDS011;6085;49.452;8.502;2022-11-22T00:00:47;4.03;;;3.00;;
12048;SDS011;6085;49.452;8.502;2022-11-22T00:04:49;6.00;;;3.50;;
12048;SDS011;6085;49.452;8.502;2022-11-22T00:08:51;4.57;;;3.17;;
12048;SDS011;6085;49.452;8.502;2022-11-22T00:12:54;4.88;;;2.97;;
12048;SDS011;6085;49.452;8.502;2022-11-22T00:16:56;4.15;;;2.55;;
12048;SDS011;6085;49.452;8.502;2022-11-22T00:21:03;3.92;;;2.65;;
12048;SDS011;6085;49.452;8.502;2022-11-22T00:25:06;3.58;;;2.85;;
12048;SDS011;6085;49.452;8.502;2022-11-22T00:29:10;5.28;;;3.20;;
12048;SDS011;6085;49.452;8.502;2022-11-22T00:33:13;4.30;;;2.90;;
12048;SDS011;6085;49.452;8.502;2022-11-22T00:37:15;5.45;;;2.95;;
12048;SDS011;6085;49.452;8.502;2022-11-22T00:41:17;6.80;;;3.30;;
12048;SDS011;6085;49.452;8.502;2022-11-22T00:45:20;6.05;;;3.13;;
12048;SDS011;6085;49.452;8.502;2022-11-22T00:49:22;5.63;;;3.25;;
12048;SDS011;6085;49.452;8.502;2022-11-22T00:53:24;4.55;;;2.85;;
12048;SDS011;6085;49.452;8.502;2022-11-22T00:57:26;4.43;;;2.90;;
12048;SDS011;6085;49.452;8.502;2022-11-22T01:01:29;5.57;;;3.20;;
12048;SDS011;6085;49.452;8.502;2022-11-22T01:05:31;4.25;;;2.90;;
12048;SDS011;6085;49.452;8.502;2022-11-22T01:09:33;4.65;;;3.00;;
12048;SDS011;6085;49.452;8.502;2022-11-22T01:13:35;4.20;;;2.80;;
12048;SDS011;6085;49.452;8.502;2022-11-22T01:17:38;5.07;;;3.10;;
12048;SDS011;6085;49.452;8.502;2022-11-22T01:21:40;4.47;;;2.90;;
12048;SDS011;6085;49.452;8.502;2022-11-22T01:25:42;5.03;;;2.97;;
12048;SDS011;6085;49.452;8.502;2022-11-22T01:29:45;4.10;;;2.97;;
12048;SDS011;6085;49.452;8.502;2022-11-22T01:33:48;7.15;;;3.35;;
12048;SDS011;6085;49.452;8.502;2022-11-22T01:37:50;3.47;;;2.97;;
12048;SDS011;6085;49.452;8.502;2022-11-22T01:41:51;7.28;;;3.78;;
12048;SDS011;6085;49.452;8.502;2022-11-22T01:45:54;5.00;;;3.50;;
12048;SDS011;6085;49.452;8.502;2022-11-22T01:49:58;5.88;;;3.47;;
12048;SDS011;6085;49.452;8.502;2022-11-22T01:54:05;6.38;;;3.70;;
12048;SDS011;6085;49.452;8.502;2022-11-22T01:58:09;5.78;;;3.42;;
12048;SDS011;6085;49.452;8.502;2022-11-22T02:02:14;5.65;;;3.50;;
12048;SDS011;6085;49.452;8.502;2022-11-22T02:06:18;4.95;;;3.50;;
12048;SDS011;6085;49.452;8.502;2022-11-22T02:10:21;5.35;;;3.50;;
12048;SDS011;6085;49.452;8.502;2022-11-22T02:14:25;6.38;;;4.05;;
12048;SDS011;6085;49.452;8.502;2022-11-22T02:18:28;4.65;;;3.42;;
12048;SDS011;6085;49.452;8.502;2022-11-22T02:22:32;6.30;;;4.03;;
12048;SDS011;6085;49.452;8.502;2022-11-22T02:26:41;5.60;;;4.00;;
12048;SDS011;6085;49.452;8.502;2022-11-22T02:30:43;5.95;;;4.03;;
12048;SDS011;6085;49.452;8.502;2022-11-22T02:34:46;6.63;;;4.22;;
12048;SDS011;6085;49.452;8.502;2022-11-22T02:38:48;5.18;;;3.92;;
12048;SDS011;6085;49.452;8.502;2022-11-22T02:42:53;7.20;;;4.07;;
12048;SDS011;6085;49.452;8.502;2022-11-22T02:46:58;8.82;;;4.00;;
12048;SDS011;6085;49.452;8.502;2022-11-22T02:51:01;6.00;;;3.70;;
12048;SDS011;6085;49.452;8.502;2022-11-22T02:55:03;7.82;;;4.03;;
12048;SDS011;6085;49.452;8.502;2022-11-22T02:59:06;4.80;;;3.40;;
12048;SDS011;6085;49.452;8.502;2022-11-22T03:03:08;4.00;;;3.10;;
12048;SDS011;6085;49.452;8.502;2022-11-22T03:07:11;8.00;;;3.67;;
12048;SDS011;6085;49.452;8.502;2022-11-22T03:11:13;8.18;;;3.17;;
12048;SDS011;6085;49.452;8.502;2022-11-22T03:15:16;5.20;;;3.17;;
12048;SDS011;6085;49.452;8.502;2022-11-22T03:19:18;4.35;;;2.75;;
12048;SDS011;6085;49.452;8.502;2022-11-22T03:23:20;5.57;;;3.05;;
12048;SDS011;6085;49.452;8.502;2022-11-22T03:27:22;5.75;;;2.63;;
12048;SDS011;6085;49.452;8.502;2022-11-22T03:31:25;6.53;;;2.70;;
12048;SDS011;6085;49.452;8.502;2022-11-22T03:35:27;7.03;;;3.17;;
12048;SDS011;6085;49.452;8.502;2022-11-22T03:39:29;4.78;;;2.70;;
12048;SDS011;6085;49.452;8.502;2022-11-22T03:43:31;6.85;;;2.90;;
12048;SDS011;6085;49.452;8.502;2022-11-22T03:47:34;5.15;;;2.58;;
12048;SDS011;6085;49.452;8.502;2022-11-22T03:51:36;9.15;;;3.03;;
12048;SDS011;6085;49.452;8.502;2022-11-22T03:55:38;6.82;;;2.60;;
12048;SDS011;6085;49.452;8.502;2022-11-22T03:59:40;5.75;;;3.03;;
12048;SDS011;6085;49.452;8.502;2022-11-22T04:03:43;7.15;;;3.38;;
12048;SDS011;6085;49.452;8.502;2022-11-22T04:07:45;8.13;;;2.70;;
12048;SDS011;6085;49.452;8.502;2022-11-22T04:11:47;7.45;;;3.25;;
12048;SDS011;6085;49.452;8.502;2022-11-22T04:15:49;9.85;;;3.00;;
12048;SDS011;6085;49.452;8.502;2022-11-22T04:19:52;7.35;;;3.17;;
12048;SDS011;6085;49.452;8.502;2022-11-22T04:24:20;7.53;;;2.50;;
12048;SDS011;6085;49.452;8.502;2022-11-22T04:28:39;7.57;;;2.33;;
12048;SDS011;6085;49.452;8.502;2022-11-22T04:32:41;7.90;;;2.28;;
12048;SDS011;6085;49.452;8.502;2022-11-22T04:36:47;7.28;;;2.55;;
12048;SDS011;6085;49.452;8.502;2022-11-22T04:40:49;5.50;;;2.20;;
12048;SDS011;6085;49.452;8.502;2022-11-22T04:44:51;6.63;;;2.33;;
12048;SDS011;6085;49.452;8.502;2022-11-22T04:48:52;5.88;;;2.45;;
12048;SDS011;6085;49.452;8.502;2022-11-22T04:52:55;10.52;;;2.72;;
12048;SDS011;6085;49.452;8.502;2022-11-22T04:56:56;8.48;;;2.55;;
12048;SDS011;6085;49.452;8.502;2022-11-22T05:00:58;4.97;;;2.53;;
12048;SDS011;6085;49.452;8.502;2022-11-22T05:05:00;8.50;;;2.65;;
12048;SDS011;6085;49.452;8.502;2022-11-22T05:09:03;6.55;;;2.10;;
12048;SDS011;6085;49.452;8.502;2022-11-22T05:13:05;6.93;;;1.95;;
12048;SDS011;6085;49.452;8.502;2022-11-22T05:17:07;6.00;;;2.38;;
12048;SDS011;6085;49.452;8.502;2022-11-22T05:21:09;6.85;;;2.53;;
12048;SDS011;6085;49.452;8.502;2022-11-22T05:25:13;9.88;;;2.67;;
12048;SDS011;6085;49.452;8.502;2022-11-22T05:29:15;7.88;;;2.60;;
12048;SDS011;6085;49.452;8.502;2022-11-22T05:33:17;6.68;;;2.22;;
12048;SDS011;6085;49.452;8.502;2022-11-22T05:37:19;5.28;;;2.05;;
12048;SDS011;6085;49.452;8.502;2022-11-22T05:41:22;11.68;;;2.15;;
12048;SDS011;6085;49.452;8.502;2022-11-22T05:45:24;6.82;;;2.00;;
12048;SDS011;6085;49.452;8.502;2022-11-22T05:49:26;5.78;;;2.90;;
12048;SDS011;6085;49.452;8.502;2022-11-22T05:53:28;9.70;;;2.25;;
12048;SDS011;6085;49.452;8.502;2022-11-22T05:57:32;9.15;;;2.45;;
12048;SDS011;6085;49.452;8.502;2022-11-22T06:01:33;6.55;;;1.90;;
12048;SDS011;6085;49.452;8.502;2022-11-22T06:05:35;8.80;;;2.35;;
12048;SDS011;6085;49.452;8.502;2022-11-22T06:09:37;8.85;;;2.20;;
12048;SDS011;6085;49.452;8.502;2022-11-22T06:13:41;5.68;;;1.75;;
12048;SDS011;6085;49.452;8.502;2022-11-22T06:17:44;6.88;;;2.28;;
12048;SDS011;6085;49.452;8.502;2022-11-22T06:21:45;11.02;;;2.42;;
12048;SDS011;6085;49.452;8.502;2022-11-22T06:25:54;7.13;;;2.40;;
12048;SDS011;6085;49.452;8.502;2022-11-22T06:29:58;4.97;;;2.35;;
12048;SDS011;6085;49.452;8.502;2022-11-22T06:34:00;6.00;;;2.08;;
12048;SDS011;6085;49.452;8.502;2022-11-22T06:38:01;8.90;;;2.38;;
12048;SDS011;6085;49.452;8.502;2022-11-22T06:42:03;6.10;;;2.08;;
12048;SDS011;6085;49.452;8.502;2022-11-22T06:46:07;6.50;;;1.85;;
12048;SDS011;6085;49.452;8.502;2022-11-22T06:50:10;5.20;;;2.30;;
12048;SDS011;6085;49.452;8.502;2022-11-22T06:54:11;4.15;;;2.13;;
12048;SDS011;6085;49.452;8.502;2022-11-22T06:58:14;11.73;;;2.90;;
12048;SDS011;6085;49.452;8.502;2022-11-22T07:02:17;6.82;;;2.42;;
12048;SDS011;6085;49.452;8.502;2022-11-22T07:06:19;9.43;;;2.65;;
12048;SDS011;6085;49.452;8.502;2022-11-22T07:10:21;4.47;;;2.33;;
12048;SDS011;6085;49.452;8.502;2022-11-22T07:14:22;6.82;;;2.15;;
12048;SDS011;6085;49.452;8.502;2022-11-22T07:18:26;8.45;;;2.45;;
12048;SDS011;6085;49.452;8.502;2022-11-22T07:22:28;5.07;;;2.00;;
12048;SDS011;6085;49.452;8.502;2022-11-22T07:26:30;10.50;;;2.60;;
12048;SDS011;6085;49.452;8.502;2022-11-22T07:30:32;8.48;;;2.25;;
12048;SDS011;6085;49.452;8.502;2022-11-22T07:34:35;6.70;;;1.92;;
12048;SDS011;6085;49.452;8.502;2022-11-22T07:38:37;7.78;;;2.20;;
12048;SDS011;6085;49.452;8.502;2022-11-22T07:42:39;8.48;;;2.15;;
12048;SDS011;6085;49.452;8.502;2022-11-22T07:46:41;4.30;;;1.92;;
12048;SDS011;6085;49.452;8.502;2022-11-22T07:50:44;4.25;;;1.70;;
12048;SDS011;6085;49.452;8.502;2022-11-22T07:54:46;8.77;;;2.00;;
12048;SDS011;6085;49.452;8.502;2022-11-22T07:58:48;5.93;;;2.08;;
12048;SDS011;6085;49.452;8.502;2022-11-22T08:02:50;4.68;;;1.70;;
12048;SDS011;6085;49.452;8.502;2022-11-22T08:06:53;8.95;;;2.22;;
12048;SDS011;6085;49.452;8.502;2022-11-22T08:10:55;7.78;;;2.28;;
12048;SDS011;6085;49.452;8.502;2022-11-22T08:14:57;6.82;;;1.95;;
12048;SDS011;6085;49.452;8.502;2022-11-22T08:18:58;5.50;;;1.60;;
12048;SDS011;6085;49.452;8.502;2022-11-22T08:23:02;4.60;;;1.45;;
12048;SDS011;6085;49.452;8.502;2022-11-22T08:27:03;4.38;;;1.63;;
12048;SDS011;6085;49.452;8.502;2022-11-22T08:31:06;6.50;;;1.73;;
12048;SDS011;6085;49.452;8.502;2022-11-22T08:35:09;6.22;;;2.25;;
12048;SDS011;6085;49.452;8.502;2022-11-22T08:39:12;6.78;;;2.35;;
12048;SDS011;6085;49.452;8.502;2022-11-22T08:43:14;4.63;;;2.03;;
12048;SDS011;6085;49.452;8.502;2022-11-22T08:47:16;5.93;;;1.67;;
12048;SDS011;6085;49.452;8.502;2022-11-22T08:51:18;3.97;;;1.70;;
12048;SDS011;6085;49.452;8.502;2022-11-22T08:55:21;5.28;;;1.70;;
12048;SDS011;6085;49.452;8.502;2022-11-22T08:59:23;4.47;;;1.75;;
12048;SDS011;6085;49.452;8.502;2022-11-22T09:03:25;6.68;;;1.80;;
12048;SDS011;6085;49.452;8.502;2022-11-22T09:07:27;4.43;;;1.60;;
12048;SDS011;6085;49.452;8.502;2022-11-22T09:11:31;5.03;;;1.77;;
12048;SDS011;6085;49.452;8.502;2022-11-22T09:15:33;3.72;;;1.50;;
12048;SDS011;6085;49.452;8.502;2022-11-22T09:19:34;5.93;;;1.90;;
12048;SDS011;6085;49.452;8.502;2022-11-22T09:23:36;5.28;;;1.80;;
12048;SDS011;6085;49.452;8.502;2022-11-22T09:27:39;5.57;;;1.50;;
12048;SDS011;6085;49.452;8.502;2022-11-22T09:31:41;8.00;;;1.80;;
12048;SDS011;6085;49.452;8.502;2022-11-22T09:35:43;4.97;;;1.30;;
12048;SDS011;6085;49.452;8.502;2022-11-22T09:39:45;3.78;;;1.65;;
12048;SDS011;6085;49.452;8.502;2022-11-22T09:43:50;2.85;;;1.42;;
12048;SDS011;6085;49.452;8.502;2022-11-22T09:48:02;4.30;;;1.75;;
12048;SDS011;6085;49.452;8.502;2022-11-22T09:52:16;7.53;;;1.58;;
12048;SDS011;6085;49.452;8.502;2022-11-22T09:56:25;3.10;;;1.70;;
12048;SDS011;6085;49.452;8.502;2022-11-22T10:00:30;6.78;;;1.92;;
12048;SDS011;6085;49.452;8.502;2022-11-22T10:04:34;4.93;;;1.65;;
12048;SDS011;6085;49.452;8.502;2022-11-22T10:08:40;6.22;;;1.70;;
12048;SDS011;6085;49.452;8.502;2022-11-22T10:12:49;4.15;;;1.60;;
12048;SDS011;6085;49.452;8.502;2022-11-22T10:17:00;6.07;;;1.67;;
12048;SDS011;6085;49.452;8.502;2022-11-22T10:21:11;4.60;;;1.52;;
12048;SDS011;6085;49.452;8.502;2022-11-22T10:25:15;3.22;;;1.20;;
12048;SDS011;6085;49.452;8.502;2022-11-22T10:29:21;4.00;;;1.30;;
12048;SDS011;6085;49.452;8.502;2022-11-22T10:33:34;4.90;;;1.70;;
12048;SDS011;6085;49.452;8.502;2022-11-22T10:37:42;6.63;;;1.67;;
12048;SDS011;6085;49.452;8.502;2022-11-22T10:42:03;5.40;;;1.90;;
12048;SDS011;6085;49.452;8.502;2022-11-22T10:46:25;5.40;;;1.65;;
12048;SDS011;6085;49.452;8.502;2022-11-22T10:50:35;3.90;;;1.80;;
12048;SDS011;6085;49.452;8.502;2022-11-22T10:54:47;4.38;;;1.65;;
12048;SDS011;6085;49.452;8.502;2022-11-22T10:59:04;4.10;;;1.85;;
12048;SDS011;6085;49.452;8.502;2022-11-22T11:03:23;3.72;;;1.58;;
12048;SDS011;6085;49.452;8.502;2022-11-22T11:07:29;4.10;;;1.63;;
12048;SDS011;6085;49.452;8.502;2022-11-22T11:11:31;6.53;;;1.85;;
12048;SDS011;6085;49.452;8.502;2022-11-22T11:15:36;6.18;;;1.70;;
12048;SDS011;6085;49.452;8.502;2022-11-22T11:19:43;5.20;;;1.52;;
12048;SDS011;6085;49.452;8.502;2022-11-22T11:23:51;4.82;;;1.95;;
12048;SDS011;6085;49.452;8.502;2022-11-22T11:27:53;4.88;;;2.03;;
12048;SDS011;6085;49.452;8.502;2022-11-22T11:32:09;4.65;;;1.88;;
12048;SDS011;6085;49.452;8.502;2022-11-22T11:36:13;6.00;;;1.58;;
12048;SDS011;6085;49.452;8.502;2022-11-22T11:40:26;8.98;;;2.95;;
12048;SDS011;6085;49.452;8.502;2022-11-22T11:44:30;2.80;;;1.17;;
12048;SDS011;6085;49.452;8.502;2022-11-22T11:48:35;3.88;;;1.98;;
12048;SDS011;6085;49.452;8.502;2022-11-22T11:52:40;1.77;;;1.48;;
12048;SDS011;6085;49.452;8.502;2022-11-22T11:56:52;1.60;;;1.17;;
12048;SDS011;6085;49.452;8.502;2022-11-22T12:00:56;5.25;;;1.70;;
12048;SDS011;6085;49.452;8.502;2022-11-22T12:04:59;2.55;;;0.93;;
12048;SDS011;6085;49.452;8.502;2022-11-22T12:09:07;4.40;;;1.33;;
12048;SDS011;6085;49.452;8.502;2022-11-22T12:13:30;2.60;;;1.20;;
12048;SDS011;6085;49.452;8.502;2022-11-22T12:17:37;2.45;;;1.35;;
12048;SDS011;6085;49.452;8.502;2022-11-22T12:21:51;4.35;;;1.17;;
12048;SDS011;6085;49.452;8.502;2022-11-22T12:25:56;3.97;;;1.67;;
12048;SDS011;6085;49.452;8.502;2022-11-22T12:30:00;3.00;;;1.45;;
12048;SDS011;6085;49.452;8.502;2022-11-22T12:34:05;4.50;;;2.08;;
12048;SDS011;6085;49.452;8.502;2022-11-22T12:38:11;3.20;;;1.25;;
12048;SDS011;6085;49.452;8.502;2022-11-22T12:42:17;3.55;;;1.40;;
12048;SDS011;6085;49.452;8.502;2022-11-22T12:46:26;2.50;;;1.15;;
12048;SDS011;6085;49.452;8.502;2022-11-22T12:50:35;3.45;;;1.65;;
12048;SDS011;6085;49.452;8.502;2022-11-22T12:54:42;3.88;;;1.55;;
12048;SDS011;6085;49.452;8.502;2022-11-22T12:58:58;4.93;;;1.45;;
12048;SDS011;6085;49.452;8.502;2022-11-22T13:03:07;2.30;;;1.20;;
12048;SDS011;6085;49.452;8.502;2022-11-22T13:07:13;4.43;;;1.75;;
12048;SDS011;6085;49.452;8.502;2022-11-22T13:11:20;4.55;;;1.50;;
12048;SDS011;6085;49.452;8.502;2022-11-22T13:15:27;3.95;;;1.55;;
12048;SDS011;6085;49.452;8.502;2022-11-22T13:19:31;3.88;;;1.48;;
12048;SDS011;6085;49.452;8.502;2022-11-22T13:23:45;5.43;;;1.50;;
12048;SDS011;6085;49.452;8.502;2022-11-22T13:27:54;3.97;;;1.40;;
12048;SDS011;6085;49.452;8.502;2022-11-22T13:32:02;4.68;;;1.95;;
12048;SDS011;6085;49.452;8.502;2022-11-22T13:40:41;3.60;;;1.65;;
12048;SDS011;6085;49.452;8.502;2022-11-22T13:44:49;3.85;;;1.20;;
12048;SDS011;6085;49.452;8.502;2022-11-22T13:49:10;3.75;;;1.38;;
12048;SDS011;6085;49.452;8.502;2022-11-22T13:53:20;3.95;;;1.35;;
12048;SDS011;6085;49.452;8.502;2022-11-22T13:57:32;5.22;;;1.30;;
12048;SDS011;6085;49.452;8.502;2022-11-22T14:06:19;2.25;;;1.15;;
12048;SDS011;6085;49.452;8.502;2022-11-22T14:10:29;2.05;;;1.40;;
12048;SDS011;6085;49.452;8.502;2022-11-22T14:14:35;2.42;;;1.30;;
12048;SDS011;6085;49.452;8.502;2022-11-22T14:18:53;2.70;;;0.90;;
12048;SDS011;6085;49.452;8.502;2022-11-22T14:23:04;2.70;;;1.23;;
12048;SDS011;6085;49.452;8.502;2022-11-22T14:27:17;3.42;;;1.10;;
12048;SDS011;6085;49.452;8.502;2022-11-22T14:31:27;0.60;;;0.60;;
12048;SDS011;6085;49.452;8.502;2022-11-22T14:35:32;1.20;;;0.80;;
12048;SDS011;6085;49.452;8.502;2022-11-22T14:44:18;3.42;;;1.60;;
12048;SDS011;6085;49.452;8.502;2022-11-22T14:48:23;1.90;;;0.70;;
12048;SDS011;6085;49.452;8.502;2022-11-22T14:52:30;0.77;;;0.70;;
12048;SDS011;6085;49.452;8.502;2022-11-22T14:56:33;1.58;;;0.90;;
12048;SDS011;6085;49.452;8.502;2022-11-22T15:00:40;1.85;;;0.95;;
12048;SDS011;6085;49.452;8.502;2022-11-22T15:04:57;2.38;;;0.70;;
12048;SDS011;6085;49.452;8.502;2022-11-22T15:09:11;2.88;;;0.90;;
12048;SDS011;6085;49.452;8.502;2022-11-22T15:13:38;1.10;;;0.70;;
12048;SDS011;6085;49.452;8.502;2022-11-22T15:17:54;2.20;;;0.70;;
12048;SDS011;6085;49.452;8.502;2022-11-22T15:22:03;2.67;;;1.00;;
12048;SDS011;6085;49.452;8.502;2022-11-22T15:26:11;1.77;;;0.98;;
12048;SDS011;6085;49.452;8.502;2022-11-22T15:30:16;1.27;;;0.90;;
12048;SDS011;6085;49.452;8.502;2022-11-22T15:34:21;1.80;;;0.77;;
12048;SDS011;6085;49.452;8.502;2022-11-22T15:38:23;4.30;;;0.90;;
12048;SDS011;6085;49.452;8.502;2022-11-22T15:42:25;1.80;;;1.10;;
12048;SDS011;6085;49.452;8.502;2022-11-22T15:46:26;1.70;;;1.17;;
12048;SDS011;6085;49.452;8.502;2022-11-22T15:50:30;1.35;;;1.02;;
12048;SDS011;6085;49.452;8.502;2022-11-22T15:54:35;2.78;;;0.90;;
12048;SDS011;6085;49.452;8.502;2022-11-22T15:58:40;1.85;;;0.95;;
12048;SDS011;6085;49.452;8.502;2022-11-22T16:02:46;1.85;;;0.90;;
12048;SDS011;6085;49.452;8.502;2022-11-22T16:06:51;2.63;;;0.93;;
12048;SDS011;6085;49.452;8.502;2022-11-22T16:10:53;1.77;;;0.75;;
12048;SDS011;6085;49.452;8.502;2022-11-22T16:14:55;2.47;;;1.27;;
12048;SDS011;6085;49.452;8.502;2022-11-22T16:19:16;1.27;;;0.80;;
12048;SDS011;6085;49.452;8.502;2022-11-22T16:23:25;1.95;;;1.00;;
12048;SDS011;6085;49.452;8.502;2022-11-22T16:27:27;1.15;;;0.75;;
12048;SDS011;6085;49.452;8.502;2022-11-22T16:31:30;2.97;;;0.98;;
12048;SDS011;6085;49.452;8.502;2022-11-22T16:35:32;1.65;;;0.95;;
12048;SDS011;6085;49.452;8.502;2022-11-22T16:39:35;2.15;;;1.50;;
12048;SDS011;6085;49.452;8.502;2022-11-22T16:43:37;2.78;;;1.15;;
12048;SDS011;6085;49.452;8.502;2022-11-22T16:47:39;3.63;;;1.17;;
12048;SDS011;6085;49.452;8.502;2022-11-22T16:51:41;2.00;;;1.48;;
12048;SDS011;6085;49.452;8.502;2022-11-22T16:55:45;4.60;;;1.00;;
12048;SDS011;6085;49.452;8.502;2022-11-22T16:59:46;2.58;;;1.25;;
12048;SDS011;6085;49.452;8.502;2022-11-22T17:03:49;2.47;;;1.02;;
12048;SDS011;6085;49.452;8.502;2022-11-22T17:07:53;1.73;;;1.10;;
12048;SDS011;6085;49.452;8.502;2022-11-22T17:11:56;1.88;;;1.20;;
12048;SDS011;6085;49.452;8.502;2022-11-22T17:15:58;5.30;;;1.27;;
12048;SDS011;6085;49.452;8.502;2022-11-22T17:19:59;1.88;;;1.48;;
12048;SDS011;6085;49.452;8.502;2022-11-22T17:24:02;1.92;;;1.45;;
12048;SDS011;6085;49.452;8.502;2022-11-22T17:28:06;2.58;;;1.38;;
12048;SDS011;6085;49.452;8.502;2022-11-22T17:32:09;2.28;;;1.50;;
12048;SDS011;6085;49.452;8.502;2022-11-22T17:36:17;3.30;;;1.77;;
12048;SDS011;6085;49.452;8.502;2022-11-22T17:40:21;3.17;;;1.90;;
12048;SDS011;6085;49.452;8.502;2022-11-22T17:44:24;3.92;;;2.30;;
12048;SDS011;6085;49.452;8.502;2022-11-22T17:48:26;2.70;;;1.90;;
12048;SDS011;6085;49.452;8.502;2022-11-22T17:52:28;2.67;;;1.67;;
12048;SDS011;6085;49.452;8.502;2022-11-22T17:56:30;3.63;;;1.90;;
12048;SDS011;6085;49.452;8.502;2022-11-22T18:00:34;3.40;;;1.63;;
12048;SDS011;6085;49.452;8.502;2022-11-22T18:04:36;4.93;;;1.80;;
12048;SDS011;6085;49.452;8.502;2022-11-22T18:08:38;5.75;;;1.85;;
12048;SDS011;6085;49.452;8.502;2022-11-22T18:12:40;2.40;;;1.73;;
12048;SDS011;6085;49.452;8.502;2022-11-22T18:16:44;3.40;;;1.88;;
12048;SDS011;6085;49.452;8.502;2022-11-22T18:20:46;2.42;;;1.60;;
12048;SDS011;6085;49.452;8.502;2022-11-22T18:24:48;3.70;;;1.80;;
12048;SDS011;6085;49.452;8.502;2022-11-22T18:28:50;3.47;;;1.85;;
12048;SDS011;6085;49.452;8.502;2022-11-22T18:32:53;3.45;;;1.92;;
12048;SDS011;6085;49.452;8.502;2022-11-22T18:36:55;3.53;;;1.95;;
12048;SDS011;6085;49.452;8.502;2022-11-22T18:40:57;3.83;;;2.50;;
12048;SDS011;6085;49.452;8.502;2022-11-22T18:44:59;5.70;;;2.30;;
12048;SDS011;6085;49.452;8.502;2022-11-22T18:49:02;6.05;;;2.00;;
12048;SDS011;6085;49.452;8.502;2022-11-22T18:53:04;3.53;;;2.05;;
12048;SDS011;6085;49.452;8.502;2022-11-22T18:57:06;6.25;;;2.10;;
12048;SDS011;6085;49.452;8.502;2022-11-22T19:01:09;5.07;;;2.25;;
12048;SDS011;6085;49.452;8.502;2022-11-22T19:05:12;4.18;;;2.10;;
12048;SDS011;6085;49.452;8.502;2022-11-22T19:09:15;5.85;;;2.22;;
12048;SDS011;6085;49.452;8.502;2022-11-22T19:13:16;4.65;;;1.83;;
12048;SDS011;6085;49.452;8.502;2022-11-22T19:17:18;4.03;;;2.17;;
12048;SDS011;6085;49.452;8.502;2022-11-22T19:21:22;2.80;;;1.83;;
12048;SDS011;6085;49.452;8.502;2022-11-22T19:25:26;5.00;;;2.30;;
12048;SDS011;6085;49.452;8.502;2022-11-22T19:29:28;3.95;;;1.92;;
12048;SDS011;6085;49.452;8.502;2022-11-22T19:33:30;7.30;;;2.47;;
12048;SDS011;6085;49.452;8.502;2022-11-22T19:37:34;4.63;;;2.30;;
12048;SDS011;6085;49.452;8.502;2022-11-22T19:41:35;5.80;;;2.28;;
12048;SDS011;6085;49.452;8.502;2022-11-22T19:45:37;7.43;;;2.47;;
12048;SDS011;6085;49.452;8.502;2022-11-22T19:49:39;4.50;;;2.70;;
12048;SDS011;6085;49.452;8.502;2022-11-22T19:53:42;4.80;;;2.35;;
12048;SDS011;6085;49.452;8.502;2022-11-22T19:57:44;5.47;;;2.75;;
12048;SDS011;6085;49.452;8.502;2022-11-22T20:01:46;5.13;;;2.22;;
12048;SDS011;6085;49.452;8.502;2022-11-22T20:05:48;4.20;;;2.72;;
12048;SDS011;6085;49.452;8.502;2022-11-22T20:09:51;7.55;;;2.65;;
12048;SDS011;6085;49.452;8.502;2022-11-22T20:13:53;6.57;;;2.83;;
12048;SDS011;6085;49.452;8.502;2022-11-22T20:17:55;4.72;;;2.17;;
12048;SDS011;6085;49.452;8.502;2022-11-22T20:21:57;4.50;;;2.20;;
12048;SDS011;6085;49.452;8.502;2022-11-22T20:26:00;4.53;;;2.30;;
12048;SDS011;6085;49.452;8.502;2022-11-22T20:30:03;6.50;;;3.60;;
12048;SDS011;6085;49.452;8.502;2022-11-22T20:34:06;9.68;;;5.15;;
12048;SDS011;6085;49.452;8.502;2022-11-22T20:38:09;9.93;;;4.57;;
12048;SDS011;6085;49.452;8.502;2022-11-22T20:42:13;7.57;;;3.97;;
12048;SDS011;6085;49.452;8.502;2022-11-22T20:46:15;5.18;;;3.70;;
12048;SDS011;6085;49.452;8.502;2022-11-22T20:50:19;4.80;;;3.20;;
12048;SDS011;6085;49.452;8.502;2022-11-22T20:54:20;5.00;;;3.03;;
12048;SDS011;6085;49.452;8.502;2022-11-22T20:58:24;5.68;;;3.13;;
12048;SDS011;6085;49.452;8.502;2022-11-22T21:02:27;6.05;;;3.40;;
12048;SDS011;6085;49.452;8.502;2022-11-22T21:06:29;7.88;;;2.85;;
12048;SDS011;6085;49.452;8.502;2022-11-22T21:10:31;5.13;;;2.72;;
12048;SDS011;6085;49.452;8.502;2022-11-22T21:14:35;5.68;;;3.13;;
12048;SDS011;6085;49.452;8.502;2022-11-22T21:18:37;4.47;;;2.78;;
12048;SDS011;6085;49.452;8.502;2022-11-22T21:22:39;4.85;;;2.75;;
12048;SDS011;6085;49.452;8.502;2022-11-22T21:26:41;2.75;;;2.50;;
12048;SDS011;6085;49.452;8.502;2022-11-22T21:30:44;4.35;;;2.45;;
12048;SDS011;6085;49.452;8.502;2022-11-22T21:34:46;2.83;;;2.30;;
12048;SDS011;6085;49.452;8.502;2022-11-22T21:38:48;6.03;;;2.60;;
12048;SDS011;6085;49.452;8.502;2022-11-22T21:42:50;5.18;;;2.50;;
12048;SDS011;6085;49.452;8.502;2022-11-22T21:46:53;4.93;;;2.42;;
12048;SDS011;6085;49.452;8.502;2022-11-22T21:50:55;7.00;;;2.53;;
12048;SDS011;6085;49.452;8.502;2022-11-22T21:54:57;4.20;;;2.40;;
12048;SDS011;6085;49.452;8.502;2022-11-22T21:58:59;6.40;;;2.30;;
12048;SDS011;6085;49.452;8.502;2022-11-22T22:03:02;5.43;;;2.25;;
12048;SDS011;6085;49.452;8.502;2022-11-22T22:07:04;7.88;;;2.50;;
12048;SDS011;6085;49.452;8.502;2022-11-22T22:11:06;4.88;;;1.95;;
12048;SDS011;6085;49.452;8.502;2022-11-22T22:15:09;3.80;;;2.05;;
12048;SDS011;6085;49.452;8.502;2022-11-22T22:19:13;7.43;;;2.25;;
12048;SDS011;6085;49.452;8.502;2022-11-22T22:23:15;3.08;;;2.05;;
12048;SDS011;6085;49.452;8.502;2022-11-22T22:27:17;4.93;;;2.00;;
12048;SDS011;6085;49.452;8.502;2022-11-22T22:31:20;3.70;;;2.10;;
12048;SDS011;6085;49.452;8.502;2022-11-22T22:35:24;4.22;;;2.10;;
12048;SDS011;6085;49.452;8.502;2022-11-22T22:39:26;5.10;;;1.83;;
12048;SDS011;6085;49.452;8.502;2022-11-22T22:43:28;8.80;;;5.07;;
12048;SDS011;6085;49.452;8.502;2022-11-22T22:47:32;5.00;;;3.28;;
12048;SDS011;6085;49.452;8.502;2022-11-22T22:51:35;5.75;;;3.90;;
12048;SDS011;6085;49.452;8.502;2022-11-22T22:55:37;9.35;;;4.60;;
12048;SDS011;6085;49.452;8.502;2022-11-22T22:59:39;6.20;;;3.72;;
12048;SDS011;6085;49.452;8.502;2022-11-22T23:03:40;4.95;;;3.20;;
12048;SDS011;6085;49.452;8.502;2022-11-22T23:07:44;6.15;;;3.50;;
12048;SDS011;6085;49.452;8.502;2022-11-22T23:11:45;5.30;;;2.92;;
12048;SDS011;6085;49.452;8.502;2022-11-22T23:16:06;4.32;;;2.08;;
12048;SDS011;6085;49.452;8.502;2022-11-22T23:20:09;5.15;;;2.20;;
12048;SDS011;6085;49.452;8.502;2022-11-22T23:24:13;7.03;;;1.90;;
12048;SDS011;6085;49.452;8.502;2022-11-22T23:28:15;5.63;;;2.22;;
12048;SDS011;6085;49.452;8.502;2022-11-22T23:32:17;5.38;;;1.95;;
12048;SDS011;6085;49.452;8.502;2022-11-22T23:36:19;5.38;;;2.33;;
12048;SDS011;6085;49.452;8.502;2022-11-22T23:40:23;4.18;;;1.98;;
12048;SDS011;6085;49.452;8.502;2022-11-22T23:44:25;10.35;;;3.72;;
12048;SDS011;6085;49.452;8.502;2022-11-22T23:48:27;4.22;;;2.00;;
12048;SDS011;6085;49.452;8.502;2022-11-22T23:52:29;5.05;;;2.25;;
12048;SDS011;6085;49.452;8.502;2022-11-22T23:56:32;6.30;;;2.13;;
